Terminal Aerodrome Forecast
Issued by NWS Blacksburg, VA

Home | Current Version | Previous Version | Text Only | Print | Product List | Glossary On
Versions: 1 2 3 4 5 6 7 8 9 10 11 12 13 14 15 16 17 18 19 20 21 22 23 24 25 26 27 28 29 30 31 32 33 34 35 36
000
FTUS41 KRNK 231133
TAFLYH
TAF
KLYH 231133Z 2312/2412 00000KT 5SM BR SCT002 OVC013
      TEMPO 2312/2313 1/2SM FG VV002
     FM231400 06007KT P6SM VCSH BKN025 OVC045
      TEMPO 2314/2316 5SM BR HZ
     FM240200 07007KT 4SM -RADZ BR OVC013
      AMD NOT SKED=

USA.gov is the U.S. government's official web portal to all federal, state and local government web resources and services.